Time;durP1;ratioP1;P1;durP2;ratioP2;P2;SDS_P1;SDS_P2;PMS_P1;PMS_P2;Temp;Humidity;BMP_temperature;BMP_pressure;BME280_temperature;BME280_humidity;BME280_pressure;Samples;Min_cycle;Max_cycle;Signal;HPM_P1;HPM_P2
2022/02/17 00:01:27;;;;;;;;;;;26.10;99.90;;;;;;5072769;28;19912;-72
2022/02/17 00:03:53;;;;;;;;;;;26.30;99.90;;;;;;5072210;28;20363;-73
2022/02/17 00:06:20;;;;;;;;;;;26.20;99.90;;;;;;5072699;28;19908;-73
2022/02/17 00:08:47;;;;;;;;;;;26.20;99.90;;;;;;5072765;28;20161;-73
2022/02/17 00:11:13;;;;;;;;;;;26.30;99.90;;;;;;5072676;28;20366;-72
2022/02/17 00:13:40;;;;;;;;;;;26.30;99.90;;;;;;5076288;28;20009;-73
2022/02/17 00:16:07;;;;;;;;;;;26.40;99.90;;;;;;5076581;28;20009;-73
2022/02/17 00:18:34;;;;;;;;;;;26.40;99.90;;;;;;5076452;28;19920;-73
2022/02/17 00:21:01;;;;;;;;;;;26.50;99.90;;;;;;5076299;28;19908;-72
2022/02/17 00:23:28;;;;;;;;;;;26.70;99.90;;;;;;5076349;28;20333;-73
2022/02/17 00:25:55;;;;;;;;;;;26.80;99.90;;;;;;5076050;28;20351;-73
2022/02/17 00:28:21;;;;;;;;;;;27.00;99.90;;;;;;5076210;28;19962;-73
2022/02/17 00:30:48;;;;;;;;;;;27.00;99.90;;;;;;5076258;28;19908;-73
2022/02/17 00:33:15;;;;;;;;;;;27.00;99.90;;;;;;5076070;28;19909;-73
2022/02/17 00:35:41;;;;;;;;;;;27.20;99.90;;;;;;5075802;28;20012;-73
2022/02/17 00:38:08;;;;;;;;;;;27.40;99.90;;;;;;5075745;28;19912;-73
2022/02/17 00:40:34;;;;;;;;;;;27.40;99.90;;;;;;5075643;28;19908;-71
2022/02/17 00:43:01;;;;;;;;;;;27.40;99.90;;;;;;5075664;28;19951;-71
2022/02/17 00:45:28;;;;;;;;;;;27.40;99.90;;;;;;5075503;28;19909;-71
2022/02/17 00:47:54;;;;;;;;;;;27.40;99.90;;;;;;5075399;28;19914;-71
2022/02/17 00:50:21;;;;;;;;;;;27.40;99.90;;;;;;5075870;28;19934;-71
2022/02/17 00:52:49;;;;;;;;;;;27.40;99.90;;;;;;5075541;28;20385;-72
2022/02/17 00:55:15;;;;;;;;;;;27.50;99.90;;;;;;5075671;28;19920;-71
2022/02/17 00:57:42;;;;;;;;;;;27.50;99.90;;;;;;5075452;28;19926;-71
2022/02/17 01:00:09;;;;;;;;;;;27.60;99.90;;;;;;5075026;28;19960;-71
2022/02/17 01:02:36;;;;;;;;;;;27.80;99.90;;;;;;5075416;28;19999;-71
2022/02/17 01:05:03;;;;;;;;;;;28.10;99.90;;;;;;5075532;28;19909;-71
2022/02/17 01:07:29;;;;;;;;;;;28.20;99.90;;;;;;5075265;28;20026;-71
2022/02/17 01:09:56;;;;;;;;;;;28.30;99.90;;;;;;5074909;28;19963;-71
2022/02/17 01:12:23;;;;;;;;;;;28.40;99.90;;;;;;5075105;28;19915;-71
2022/02/17 01:14:49;;;;;;;;;;;28.60;99.90;;;;;;5074879;28;19919;-71
2022/02/17 01:17:16;;;;;;;;;;;29.00;99.90;;;;;;5075136;28;19962;-71
2022/02/17 01:19:43;;;;;;;;;;;29.30;99.90;;;;;;5075094;28;20363;-71
2022/02/17 01:22:12;;;;;;;;;;;29.50;99.90;;;;;;5074718;28;19908;-71
2022/02/17 01:24:38;;;;;;;;;;;29.70;99.90;;;;;;5074631;28;20355;-71
2022/02/17 01:27:05;;;;;;;;;;;29.90;99.90;;;;;;5074627;28;19909;-71
2022/02/17 01:29:32;;;;;;;;;;;30.40;99.90;;;;;;5074818;28;19909;-71
2022/02/17 01:31:58;;;;;;;;;;;30.50;99.90;;;;;;5074895;28;19944;-71
2022/02/17 01:34:25;;;;;;;;;;;30.60;99.90;;;;;;5074794;28;20359;-71
2022/02/17 01:36:52;;;;;;;;;;;30.90;99.90;;;;;;5074884;28;19915;-71
2022/02/17 01:39:18;;;;;;;;;;;31.10;99.90;;;;;;5074587;28;19915;-71
2022/02/17 01:41:45;;;;;;;;;;;30.90;99.90;;;;;;5074664;28;19916;-71
2022/02/17 01:44:12;;;;;;;;;;;31.00;99.90;;;;;;5074737;28;20331;-71
2022/02/17 01:46:40;;;;;;;;;;;30.70;99.90;;;;;;5074594;28;19915;-71
2022/02/17 01:49:07;;;;;;;;;;;30.80;99.90;;;;;;5074567;28;20030;-71
2022/02/17 01:51:34;;;;;;;;;;;30.90;99.90;;;;;;5074697;28;19908;-71
2022/02/17 01:54:01;;;;;;;;;;;30.70;99.90;;;;;;5073087;28;20278;-71
2022/02/17 01:56:29;;;;;;;;;;;30.90;99.90;;;;;;5074575;28;19920;-70
2022/02/17 01:58:56;;;;;;;;;;;30.90;99.90;;;;;;5074310;28;20053;-71
2022/02/17 02:01:23;;;;;;;;;;;30.70;99.90;;;;;;5074624;28;19916;-72
2022/02/17 02:03:50;;;;;;;;;;;30.20;99.90;;;;;;5074163;28;19909;-73
2022/02/17 02:06:17;;;;;;;;;;;29.90;99.90;;;;;;5074332;28;19908;-74
2022/02/17 02:08:44;;;;;;;;;;;29.60;99.90;;;;;;5074135;28;19919;-70
2022/02/17 02:11:11;;;;;;;;;;;29.50;99.90;;;;;;5074139;28;19957;-73
2022/02/17 02:13:38;;;;;;;;;;;29.30;99.90;;;;;;5074144;28;19915;-73
2022/02/17 02:16:06;;;;;;;;;;;29.30;99.90;;;;;;5073758;28;19943;-73
2022/02/17 02:18:33;;;;;;;;;;;29.20;99.90;;;;;;5073963;28;19908;-73
2022/02/17 02:21:03;;;;;;;;;;;29.10;99.90;;;;;;5073866;28;19942;-73
2022/02/17 02:23:32;;;;;;;;;;;29.20;99.90;;;;;;5073953;28;19971;-73
2022/02/17 02:25:59;;;;;;;;;;;29.20;99.90;;;;;;5073762;28;19915;-74
2022/02/17 02:28:27;;;;;;;;;;;29.10;99.90;;;;;;5073912;28;19909;-74
2022/02/17 02:30:54;;;;;;;;;;;29.00;99.90;;;;;;5073803;28;19912;-73
2022/02/17 02:33:21;;;;;;;;;;;29.00;99.90;;;;;;5073556;28;19995;-71
2022/02/17 02:35:48;;;;;;;;;;;29.00;99.90;;;;;;5073179;28;20385;-72
2022/02/17 02:38:14;;;;;;;;;;;29.00;99.90;;;;;;5072689;28;20398;-71
2022/02/17 02:40:41;;;;;;;;;;;29.00;99.90;;;;;;5073703;28;20416;-73
2022/02/17 02:43:08;;;;;;;;;;;29.10;99.90;;;;;;5073551;28;19955;-71
2022/02/17 02:45:35;;;;;;;;;;;29.00;99.90;;;;;;5073417;28;19953;-71
2022/02/17 02:48:06;;;;;;;;;;;28.80;99.90;;;;;;5073327;28;20018;-71
2022/02/17 02:50:33;;;;;;;;;;;28.80;99.90;;;;;;5073336;28;20271;-72
2022/02/17 02:52:59;;;;;;;;;;;28.80;99.90;;;;;;5073465;28;19908;-71
2022/02/17 02:55:26;;;;;;;;;;;28.80;99.90;;;;;;5073115;28;19917;-72
2022/02/17 02:57:53;;;;;;;;;;;28.70;99.90;;;;;;5072993;28;19908;-72
2022/02/17 03:00:20;;;;;;;;;;;28.50;99.90;;;;;;5073023;28;19920;-71
2022/02/17 03:02:46;;;;;;;;;;;28.60;99.90;;;;;;5073268;28;19908;-72
2022/02/17 03:05:13;;;;;;;;;;;28.50;99.90;;;;;;5073248;28;20185;-71
2022/02/17 03:07:40;;;;;;;;;;;28.30;99.90;;;;;;5073021;28;19912;-71
2022/02/17 03:10:07;;;;;;;;;;;28.40;99.90;;;;;;5105423;28;19945;-72
2022/02/17 03:12:34;;;;;;;;;;;28.40;99.90;;;;;;5072930;28;19951;-72
2022/02/17 03:15:01;;;;;;;;;;;28.50;99.90;;;;;;5072866;28;19917;-72
2022/02/17 03:17:27;;;;;;;;;;;28.60;99.90;;;;;;5072875;28;19913;-72
2022/02/17 03:19:54;;;;;;;;;;;28.50;99.90;;;;;;5072779;28;19919;-72
2022/02/17 03:22:21;;;;;;;;;;;28.50;99.90;;;;;;5072871;28;19908;-72
2022/02/17 03:24:47;;;;;;;;;;;28.50;99.90;;;;;;5073008;28;19908;-72
2022/02/17 03:27:14;;;;;;;;;;;28.40;99.90;;;;;;5072573;28;19995;-72
2022/02/17 03:29:41;;;;;;;;;;;28.40;99.90;;;;;;5105295;28;19915;-72
2022/02/17 03:32:07;;;;;;;;;;;28.30;99.90;;;;;;5072578;28;19908;-72
2022/02/17 03:34:34;;;;;;;;;;;28.30;99.90;;;;;;5072556;28;19916;-71
2022/02/17 03:37:01;;;;;;;;;;;28.50;99.90;;;;;;5072707;28;19931;-72
2022/02/17 03:39:27;;;;;;;;;;;28.40;99.90;;;;;;5072427;28;19953;-72
2022/02/17 03:41:54;;;;;;;;;;;28.40;99.90;;;;;;5072413;28;20419;-72
2022/02/17 03:44:21;;;;;;;;;;;28.40;99.90;;;;;;5072584;28;20389;-72
2022/02/17 03:46:47;;;;;;;;;;;28.40;99.90;;;;;;5072550;28;19909;-72
2022/02/17 03:49:14;;;;;;;;;;;28.40;99.90;;;;;;5072345;28;20370;-72
2022/02/17 03:51:41;;;;;;;;;;;28.40;99.90;;;;;;5072557;28;20384;-72
2022/02/17 03:54:07;;;;;;;;;;;28.30;99.90;;;;;;5071997;28;20375;-72
2022/02/17 03:56:34;;;;;;;;;;;28.20;99.90;;;;;;5072258;28;19912;-72
2022/02/17 03:59:01;;;;;;;;;;;28.30;99.90;;;;;;5071830;28;19909;-72
2022/02/17 04:01:28;;;;;;;;;;;28.30;99.90;;;;;;5072715;28;20310;-71
2022/02/17 04:03:55;;;;;;;;;;;28.40;99.90;;;;;;5071960;28;20355;-73
2022/02/17 04:06:21;;;;;;;;;;;28.50;99.90;;;;;;5072318;28;19964;-72
2022/02/17 04:08:49;;;;;;;;;;;28.50;99.90;;;;;;5071897;28;19908;-72
2022/02/17 04:11:15;;;;;;;;;;;28.50;99.90;;;;;;5071556;28;19915;-72
2022/02/17 04:13:42;;;;;;;;;;;28.20;99.90;;;;;;5071975;28;19951;-72
2022/02/17 04:16:09;;;;;;;;;;;28.30;99.90;;;;;;5071406;28;20449;-72
2022/02/17 04:18:35;;;;;;;;;;;28.40;99.90;;;;;;5072342;28;19908;-72
2022/02/17 04:21:02;;;;;;;;;;;28.30;99.90;;;;;;5072125;28;19908;-72
2022/02/17 04:23:29;;;;;;;;;;;28.20;99.90;;;;;;5071793;28;19953;-71
2022/02/17 04:25:55;;;;;;;;;;;28.20;99.90;;;;;;5071701;28;19908;-71
2022/02/17 04:28:22;;;;;;;;;;;28.30;99.90;;;;;;5071965;28;19908;-71
2022/02/17 04:30:49;;;;;;;;;;;28.30;99.90;;;;;;5072169;28;19974;-71
2022/02/17 04:33:15;;;;;;;;;;;28.30;99.90;;;;;;5072039;28;20273;-71
2022/02/17 04:35:42;;;;;;;;;;;28.30;99.90;;;;;;5071953;28;19917;-72
2022/02/17 04:38:08;;;;;;;;;;;28.30;99.90;;;;;;5071618;28;20949;-71
2022/02/17 04:43:20;;;;;;;;;;;28.30;99.90;;;;;;5071862;28;19931;-72
2022/02/17 04:45:46;;;;;;;;;;;28.30;99.90;;;;;;5071796;28;20370;-71
2022/02/17 04:48:13;;;;;;;;;;;28.40;99.90;;;;;;5071692;28;19916;-71
2022/02/17 04:50:40;;;;;;;;;;;28.50;99.90;;;;;;5071918;28;20329;-71
2022/02/17 04:53:07;;;;;;;;;;;28.40;99.90;;;;;;5071779;28;19927;-71
2022/02/17 04:55:34;;;;;;;;;;;28.50;99.90;;;;;;5104287;28;19924;-72
2022/02/17 04:58:00;;;;;;;;;;;28.40;99.90;;;;;;5071569;28;20327;-71
2022/02/17 05:00:27;;;;;;;;;;;28.30;99.90;;;;;;5072680;28;19924;-72
2022/02/17 05:02:54;;;;;;;;;;;28.30;99.90;;;;;;5075528;28;20012;-72
2022/02/17 05:05:20;;;;;;;;;;;28.40;99.90;;;;;;5075471;28;19932;-72
2022/02/17 05:07:47;;;;;;;;;;;28.40;99.90;;;;;;5075070;28;19908;-71
2022/02/17 05:10:13;;;;;;;;;;;28.50;99.90;;;;;;5075361;28;19920;-71
2022/02/17 05:12:40;;;;;;;;;;;28.40;99.90;;;;;;5075414;28;19909;-71
2022/02/17 05:15:07;;;;;;;;;;;28.50;99.90;;;;;;5075366;28;19923;-71
2022/02/17 05:17:34;;;;;;;;;;;28.40;99.90;;;;;;5075103;28;19942;-71
2022/02/17 05:20:00;;;;;;;;;;;28.30;99.90;;;;;;5074898;28;20367;-71
2022/02/17 05:22:27;;;;;;;;;;;28.20;99.90;;;;;;5074911;28;19909;-71
2022/02/17 05:24:54;;;;;;;;;;;28.20;99.90;;;;;;5107718;28;20251;-71
2022/02/17 05:27:20;;;;;;;;;;;28.20;99.90;;;;;;5075017;28;19915;-71
2022/02/17 05:29:47;;;;;;;;;;;28.10;99.90;;;;;;5074875;28;19931;-71
2022/02/17 05:32:14;;;;;;;;;;;28.10;99.90;;;;;;5075114;28;19920;-73
2022/02/17 05:34:40;;;;;;;;;;;28.10;99.90;;;;;;5074803;28;19912;-73
2022/02/17 05:37:07;;;;;;;;;;;28.20;99.90;;;;;;5074805;28;19981;-73
2022/02/17 05:39:35;;;;;;;;;;;28.20;99.90;;;;;;5074902;28;19912;-73
2022/02/17 05:42:02;;;;;;;;;;;28.00;99.90;;;;;;5074536;28;19915;-72
2022/02/17 05:44:28;;;;;;;;;;;28.00;99.90;;;;;;5107259;28;20349;-73
2022/02/17 05:46:55;;;;;;;;;;;28.00;99.90;;;;;;5074737;28;19913;-73
2022/02/17 05:49:22;;;;;;;;;;;28.10;99.90;;;;;;5074560;28;19908;-73
2022/02/17 05:51:48;;;;;;;;;;;28.00;99.90;;;;;;5072349;28;19913;-73
2022/02/17 05:54:15;;;;;;;;;;;28.10;99.90;;;;;;5072671;28;19916;-73
2022/02/17 05:56:42;;;;;;;;;;;27.90;99.90;;;;;;5072430;28;19913;-73
2022/02/17 05:59:08;;;;;;;;;;;27.80;99.90;;;;;;5072177;28;19920;-73
2022/02/17 06:01:35;;;;;;;;;;;27.90;99.90;;;;;;5072503;28;20375;-73
2022/02/17 06:04:02;;;;;;;;;;;27.90;99.90;;;;;;5071799;28;19908;-73
2022/02/17 06:06:29;;;;;;;;;;;27.80;99.90;;;;;;5072422;28;20027;-73
2022/02/17 06:08:55;;;;;;;;;;;27.70;99.90;;;;;;5072261;28;19966;-73
2022/02/17 06:11:22;;;;;;;;;;;27.70;99.90;;;;;;5072036;28;19927;-73
2022/02/17 06:13:48;;;;;;;;;;;27.60;99.90;;;;;;5071902;28;20431;-73
2022/02/17 06:16:15;;;;;;;;;;;27.50;99.90;;;;;;5071938;28;19947;-72
2022/02/17 06:18:42;;;;;;;;;;;27.50;99.90;;;;;;5071626;28;19916;-72
2022/02/17 06:21:08;;;;;;;;;;;27.30;99.90;;;;;;5072010;28;19908;-72
2022/02/17 06:23:35;;;;;;;;;;;27.10;99.90;;;;;;5071747;28;20314;-72
2022/02/17 06:26:02;;;;;;;;;;;27.00;99.90;;;;;;5071549;28;19912;-72
2022/02/17 06:28:28;;;;;;;;;;;27.00;99.90;;;;;;5071558;28;19919;-72
2022/02/17 06:30:55;;;;;;;;;;;26.90;99.90;;;;;;5071470;28;19931;-72
2022/02/17 06:33:21;;;;;;;;;;;26.90;99.90;;;;;;5071706;28;20003;-72
2022/02/17 06:35:48;;;;;;;;;;;26.80;99.90;;;;;;5071191;28;20316;-72
2022/02/17 06:38:15;;;;;;;;;;;26.80;99.90;;;;;;5071453;28;20042;-72
2022/02/17 06:40:41;;;;;;;;;;;26.70;99.90;;;;;;5071567;28;19934;-72
2022/02/17 06:43:12;;;;;;;;;;;26.60;99.90;;;;;;5071147;28;19969;-73
2022/02/17 06:45:40;;;;;;;;;;;26.60;99.90;;;;;;5071259;28;20264;-72
2022/02/17 06:48:07;;;;;;;;;;;26.60;99.90;;;;;;5071187;28;19908;-73
2022/02/17 06:50:34;;;;;;;;;;;26.50;99.90;;;;;;5071304;28;20002;-72
2022/02/17 06:53:02;;;;;;;;;;;26.40;99.90;;;;;;5071123;28;19912;-72
2022/02/17 06:55:28;;;;;;;;;;;26.30;99.90;;;;;;5071221;28;20291;-72
2022/02/17 06:57:55;;;;;;;;;;;26.20;99.90;;;;;;5070624;28;19945;-72
2022/02/17 07:00:22;;;;;;;;;;;26.20;99.90;;;;;;5070945;28;19921;-72
2022/02/17 07:02:52;;;;;;;;;;;26.10;99.90;;;;;;5070921;28;19951;-72
2022/02/17 07:05:19;;;;;;;;;;;26.10;99.90;;;;;;5070974;28;20422;-72
2022/02/17 07:07:47;;;;;;;;;;;26.10;99.90;;;;;;5070493;28;19947;-72
2022/02/17 07:10:14;;;;;;;;;;;26.10;99.90;;;;;;5070442;28;19920;-72
2022/02/17 07:12:43;;;;;;;;;;;26.00;99.90;;;;;;5070791;28;20291;-72
2022/02/17 07:15:11;;;;;;;;;;;26.00;99.90;;;;;;5070861;28;20010;-72
2022/02/17 07:17:37;;;;;;;;;;;25.90;99.90;;;;;;5070963;28;19908;-72
2022/02/17 07:20:04;;;;;;;;;;;25.90;99.90;;;;;;5070582;28;19912;-72
2022/02/17 07:22:31;;;;;;;;;;;25.80;99.90;;;;;;5070249;28;19913;-72
2022/02/17 07:24:58;;;;;;;;;;;25.90;99.90;;;;;;5070612;28;19954;-72
2022/02/17 07:27:24;;;;;;;;;;;25.80;99.90;;;;;;5070558;28;20018;-73
2022/02/17 07:29:52;;;;;;;;;;;25.80;99.90;;;;;;5070845;28;19908;-72
2022/02/17 07:32:18;;;;;;;;;;;25.80;99.90;;;;;;5070810;28;19913;-73
2022/02/17 07:34:45;;;;;;;;;;;25.80;99.90;;;;;;5070518;28;19924;-73
2022/02/17 07:37:16;;;;;;;;;;;25.80;99.90;;;;;;5070246;28;19916;-73
2022/02/17 07:39:43;;;;;;;;;;;25.90;99.90;;;;;;5070530;28;19915;-73
2022/02/17 07:42:10;;;;;;;;;;;26.00;99.90;;;;;;5070279;28;20370;-73
2022/02/17 07:44:36;;;;;;;;;;;26.00;99.90;;;;;;5070501;28;19908;-72
2022/02/17 07:47:03;;;;;;;;;;;25.80;99.90;;;;;;5070232;28;19919;-72
2022/02/17 07:49:29;;;;;;;;;;;25.50;99.90;;;;;;5070024;28;19913;-71
2022/02/17 07:51:56;;;;;;;;;;;25.10;99.90;;;;;;5070231;28;19985;-71
2022/02/17 07:54:25;;;;;;;;;;;24.90;99.90;;;;;;5070181;28;19932;-71
2022/02/17 07:56:51;;;;;;;;;;;24.50;99.90;;;;;;5070339;28;20028;-71
2022/02/17 07:59:18;;;;;;;;;;;24.10;99.90;;;;;;5069973;28;20562;-73
2022/02/17 08:01:45;;;;;;;;;;;23.90;99.90;;;;;;5070061;28;20386;-72
2022/02/17 08:04:11;;;;;;;;;;;23.50;99.90;;;;;;5070165;28;19913;-72
2022/02/17 08:06:38;;;;;;;;;;;23.30;99.90;;;;;;5071771;28;19909;-73
2022/02/17 08:09:05;;;;;;;;;;;23.20;99.90;;;;;;5072148;28;19995;-72
2022/02/17 08:11:31;;;;;;;;;;;23.00;99.90;;;;;;5072290;28;19908;-72
2022/02/17 08:13:58;;;;;;;;;;;22.80;99.90;;;;;;5072191;28;19915;-73
2022/02/17 08:16:25;;;;;;;;;;;22.70;99.90;;;;;;5072158;28;19916;-72
2022/02/17 08:18:51;;;;;;;;;;;22.70;99.90;;;;;;5072261;28;19948;-72
2022/02/17 08:21:18;;;;;;;;;;;22.70;99.90;;;;;;5072108;28;20011;-72
2022/02/17 08:23:45;;;;;;;;;;;22.90;99.90;;;;;;5072848;28;19909;-72
2022/02/17 08:26:11;;;;;;;;;;;23.10;99.90;;;;;;5073016;28;19913;-73
2022/02/17 08:28:38;;;;;;;;;;;23.30;99.90;;;;;;5072998;28;19909;-72
2022/02/17 08:31:05;;;;;;;;;;;23.60;99.90;;;;;;5072961;28;20374;-72
2022/02/17 08:33:32;;;;;;;;;;;23.70;99.90;;;;;;5072510;28;19919;-72
2022/02/17 08:35:59;;;;;;;;;;;23.70;99.90;;;;;;5074110;28;19916;-73
2022/02/17 08:38:31;;;;;;;;;;;23.80;99.90;;;;;;5076678;28;20003;-73
2022/02/17 08:40:59;;;;;;;;;;;24.00;99.90;;;;;;5076058;28;19916;-73
2022/02/17 08:43:26;;;;;;;;;;;24.20;99.90;;;;;;5075892;28;19916;-73
2022/02/17 08:45:52;;;;;;;;;;;24.40;99.90;;;;;;5075600;28;19908;-72
2022/02/17 08:48:19;;;;;;;;;;;24.60;99.90;;;;;;5075723;28;20270;-73
2022/02/17 08:50:47;;;;;;;;;;;24.60;99.90;;;;;;5075726;28;20370;-73
2022/02/17 08:53:13;;;;;;;;;;;24.70;99.90;;;;;;5075591;28;20133;-73
2022/02/17 08:55:40;;;;;;;;;;;24.80;99.00;;;;;;5075570;28;19969;-73
2022/02/17 08:58:07;;;;;;;;;;;25.00;98.70;;;;;;5075339;28;19908;-73
2022/02/17 09:00:33;;;;;;;;;;;25.20;98.60;;;;;;5075297;28;19926;-71
2022/02/17 09:03:00;;;;;;;;;;;25.30;98.40;;;;;;5075530;28;20278;-71
2022/02/17 09:05:27;;;;;;;;;;;25.40;99.00;;;;;;5075295;28;19962;-71
2022/02/17 09:07:54;;;;;;;;;;;25.30;99.90;;;;;;5075268;28;19938;-71
2022/02/17 09:10:21;;;;;;;;;;;25.30;99.90;;;;;;5075541;28;19909;-71
2022/02/17 09:12:48;;;;;;;;;;;25.20;99.90;;;;;;5075378;28;19915;-71
2022/02/17 09:15:15;;;;;;;;;;;25.10;99.90;;;;;;5075120;28;19931;-71
2022/02/17 09:17:42;;;;;;;;;;;25.20;99.90;;;;;;5075360;28;19909;-71
2022/02/17 09:20:11;;;;;;;;;;;25.30;99.90;;;;;;5074894;28;20283;-71
2022/02/17 09:22:37;;;;;;;;;;;25.20;99.90;;;;;;5075062;28;19909;-71
2022/02/17 09:25:05;;;;;;;;;;;25.10;99.90;;;;;;5074979;28;20287;-71
2022/02/17 09:27:31;;;;;;;;;;;25.10;99.90;;;;;;5075124;28;19915;-71
2022/02/17 09:29:58;;;;;;;;;;;25.00;99.90;;;;;;5074757;28;20310;-71
2022/02/17 09:32:25;;;;;;;;;;;25.10;99.90;;;;;;5075207;28;19913;-71
2022/02/17 09:34:51;;;;;;;;;;;25.00;99.90;;;;;;5074981;28;19916;-71
2022/02/17 09:37:18;;;;;;;;;;;25.00;99.90;;;;;;5074782;28;19908;-71
2022/02/17 09:39:45;;;;;;;;;;;24.80;99.90;;;;;;5074764;28;20011;-71
2022/02/17 09:42:12;;;;;;;;;;;24.70;99.90;;;;;;5074786;28;19948;-71
2022/02/17 09:44:39;;;;;;;;;;;24.50;99.90;;;;;;5074868;28;19944;-71
2022/02/17 09:47:10;;;;;;;;;;;24.40;99.90;;;;;;5074166;28;19908;-71
2022/02/17 09:49:41;;;;;;;;;;;24.30;99.90;;;;;;5074836;28;19909;-72
2022/02/17 09:52:11;;;;;;;;;;;24.30;99.90;;;;;;5074377;28;19908;-72
2022/02/17 09:54:38;;;;;;;;;;;24.20;99.90;;;;;;5074399;28;19963;-72
2022/02/17 09:57:05;;;;;;;;;;;24.20;99.90;;;;;;5074595;28;19908;-71
2022/02/17 09:59:31;;;;;;;;;;;24.20;99.90;;;;;;5074239;28;20095;-72
2022/02/17 10:02:06;;;;;;;;;;;24.20;99.90;;;;;;5074417;28;19962;-72
2022/02/17 10:04:33;;;;;;;;;;;24.20;99.90;;;;;;5074328;28;19909;-72
2022/02/17 10:07:01;;;;;;;;;;;24.20;99.90;;;;;;5074356;28;19962;-72
2022/02/17 10:09:41;;;;;;;;;;;24.30;99.90;;;;;;5074475;28;19909;-72
2022/02/17 10:12:09;;;;;;;;;;;24.20;99.90;;;;;;5074140;28;19908;-72
2022/02/17 10:14:36;;;;;;;;;;;24.00;99.90;;;;;;5074198;28;20008;-72
2022/02/17 10:17:09;;;;;;;;;;;23.80;99.90;;;;;;5074284;28;19913;-72
2022/02/17 10:19:40;;;;;;;;;;;23.50;99.90;;;;;;5073958;28;19954;-72
2022/02/17 10:22:14;;;;;;;;;;;23.30;99.90;;;;;;5073678;28;19967;-72
2022/02/17 10:24:43;;;;;;;;;;;23.20;99.90;;;;;;5073944;28;19909;-72
2022/02/17 10:27:14;;;;;;;;;;;23.30;99.90;;;;;;5073923;28;19909;-72
2022/02/17 10:29:56;;;;;;;;;;;23.30;99.90;;;;;;5074016;28;19908;-72
2022/02/17 10:32:23;;;;;;;;;;;23.40;99.90;;;;;;5073966;28;19935;-73
2022/02/17 10:35:05;;;;;;;;;;;23.50;99.90;;;;;;5073671;28;20317;-73
2022/02/17 10:37:47;;;;;;;;;;;23.60;99.90;;;;;;5073816;28;19920;-73
2022/02/17 10:40:18;;;;;;;;;;;23.70;99.90;;;;;;5073763;28;19912;-73
2022/02/17 10:42:57;;;;;;;;;;;23.70;99.90;;;;;;5073568;28;20363;-71
2022/02/17 10:45:24;;;;;;;;;;;23.80;99.90;;;;;;5073621;28;20318;-73
2022/02/17 10:47:50;;;;;;;;;;;23.90;99.90;;;;;;5073223;28;19938;-71
2022/02/17 10:50:18;;;;;;;;;;;23.90;99.90;;;;;;5073409;28;20398;-71
2022/02/17 10:52:46;;;;;;;;;;;23.90;99.90;;;;;;5073570;28;20374;-71
2022/02/17 10:55:13;;;;;;;;;;;23.90;99.90;;;;;;5073287;28;19920;-72
2022/02/17 10:57:40;;;;;;;;;;;23.90;99.90;;;;;;5072933;28;19908;-71
2022/02/17 11:00:18;;;;;;;;;;;24.00;99.90;;;;;;5072851;28;20000;-71
2022/02/17 11:02:45;;;;;;;;;;;24.00;99.90;;;;;;5073303;28;20362;-72
2022/02/17 11:05:13;;;;;;;;;;;24.20;99.90;;;;;;5073157;28;19919;-72
2022/02/17 11:07:41;;;;;;;;;;;24.20;99.90;;;;;;5073298;28;19908;-72
2022/02/17 11:10:09;;;;;;;;;;;24.30;99.90;;;;;;5072943;28;19908;-71
2022/02/17 11:12:37;;;;;;;;;;;24.30;99.90;;;;;;5073107;28;19963;-72
2022/02/17 11:15:05;;;;;;;;;;;24.30;99.90;;;;;;5073057;28;20339;-71
2022/02/17 11:17:40;;;;;;;;;;;24.30;99.90;;;;;;5072941;28;19962;-71
2022/02/17 11:20:17;;;;;;;;;;;24.30;99.90;;;;;;5072642;28;19912;-71
2022/02/17 11:22:44;;;;;;;;;;;24.30;99.90;;;;;;5073138;28;20024;-72
2022/02/17 11:25:11;;;;;;;;;;;24.30;99.90;;;;;;5073219;28;19918;-72
2022/02/17 11:27:56;;;;;;;;;;;24.30;99.90;;;;;;5072880;28;19912;-71
2022/02/17 11:30:24;;;;;;;;;;;24.20;99.90;;;;;;5072906;28;19944;-71
2022/02/17 11:33:09;;;;;;;;;;;24.20;99.90;;;;;;5072821;28;20418;-72
2022/02/17 11:35:35;;;;;;;;;;;24.20;99.90;;;;;;5072604;28;19924;-72
2022/02/17 11:38:02;;;;;;;;;;;24.20;99.90;;;;;;5072448;28;20372;-72
2022/02/17 11:40:29;;;;;;;;;;;24.20;99.90;;;;;;5072669;28;19915;-72
2022/02/17 11:43:03;;;;;;;;;;;24.20;99.90;;;;;;5072520;28;19908;-72
2022/02/17 11:45:43;;;;;;;;;;;24.20;99.90;;;;;;5072534;28;19908;-71
2022/02/17 11:48:10;;;;;;;;;;;24.30;99.90;;;;;;5072619;28;19908;-71
2022/02/17 11:50:38;;;;;;;;;;;24.30;99.90;;;;;;5072499;28;19909;-72
2022/02/17 11:53:23;;;;;;;;;;;24.20;99.90;;;;;;5072405;28;20377;-71
2022/02/17 11:55:50;;;;;;;;;;;24.10;99.90;;;;;;5072511;28;19964;-72
2022/02/17 11:58:35;;;;;;;;;;;24.00;99.90;;;;;;5072703;28;19909;-72
2022/02/17 12:01:20;;;;;;;;;;;23.90;99.90;;;;;;5072366;28;20230;-72
2022/02/17 12:04:17;;;;;;;;;;;23.80;99.90;;;;;;5072256;28;20029;-71
2022/02/17 12:06:47;;;;;;;;;;;23.70;99.90;;;;;;5071665;28;19915;-72
2022/02/17 12:12:18;;;;;;;;;;;23.60;99.90;;;;;;5076355;28;20310;-71
2022/02/17 12:14:55;;;;;;;;;;;23.60;99.90;;;;;;5076444;28;19917;-72
2022/02/17 12:17:28;;;;;;;;;;;23.60;99.90;;;;;;5076805;28;19912;-72
2022/02/17 12:20:15;;;;;;;;;;;23.60;99.90;;;;;;5076275;28;20004;-72
2022/02/17 12:22:53;;;;;;;;;;;23.60;99.90;;;;;;5076306;28;19920;-71
2022/02/17 12:25:22;;;;;;;;;;;23.60;99.90;;;;;;5076351;28;19944;-72
2022/02/17 12:27:59;;;;;;;;;;;23.60;99.90;;;;;;5076158;28;19909;-72
2022/02/17 12:30:42;;;;;;;;;;;23.60;99.90;;;;;;5076441;28;19909;-71
2022/02/17 12:33:15;;;;;;;;;;;23.50;99.90;;;;;;5076170;28;19908;-72
2022/02/17 12:35:51;;;;;;;;;;;23.60;99.90;;;;;;5076047;28;19931;-71
2022/02/17 12:38:21;;;;;;;;;;;23.50;99.90;;;;;;5076046;28;19909;-72
2022/02/17 12:40:47;;;;;;;;;;;23.50;99.90;;;;;;5076079;28;19908;-71
2022/02/17 12:43:29;;;;;;;;;;;23.40;99.90;;;;;;5075869;28;19912;-71
2022/02/17 12:45:57;;;;;;;;;;;23.40;99.90;;;;;;5075938;28;20004;-71
2022/02/17 12:48:27;;;;;;;;;;;23.40;99.90;;;;;;5075923;28;19912;-71
2022/02/17 12:50:54;;;;;;;;;;;23.40;99.90;;;;;;5075748;28;20015;-71
2022/02/17 12:53:20;;;;;;;;;;;23.30;99.90;;;;;;5075847;28;20476;-71
2022/02/17 12:55:51;;;;;;;;;;;23.30;99.90;;;;;;5075645;28;19943;-71
2022/02/17 12:58:30;;;;;;;;;;;23.30;99.90;;;;;;5075834;28;19916;-71
2022/02/17 13:00:57;;;;;;;;;;;23.20;99.90;;;;;;5075579;28;19927;-71
2022/02/17 13:03:33;;;;;;;;;;;23.20;99.90;;;;;;5075693;28;19912;-71
2022/02/17 13:06:18;;;;;;;;;;;23.20;99.90;;;;;;5075260;28;19908;-71
2022/02/17 13:08:55;;;;;;;;;;;23.10;99.90;;;;;;5075605;28;19916;-71
2022/02/17 13:11:24;;;;;;;;;;;23.10;99.90;;;;;;5075531;28;19909;-71
2022/02/17 13:14:04;;;;;;;;;;;23.10;99.90;;;;;;5075336;28;20363;-71
2022/02/17 13:16:34;;;;;;;;;;;23.10;99.90;;;;;;5075400;28;20007;-71
2022/02/17 13:19:01;;;;;;;;;;;23.10;99.90;;;;;;5075297;28;20007;-71
2022/02/17 13:21:28;;;;;;;;;;;23.10;99.90;;;;;;5074431;28;20363;-71
2022/02/17 13:24:11;;;;;;;;;;;23.00;99.90;;;;;;5075006;28;20405;-71
2022/02/17 13:26:38;;;;;;;;;;;23.10;99.90;;;;;;5075322;28;19940;-71
2022/02/17 13:29:06;;;;;;;;;;;23.00;99.90;;;;;;5075120;28;20371;-71
2022/02/17 13:31:39;;;;;;;;;;;23.10;99.90;;;;;;5075161;28;19913;-71
2022/02/17 13:34:06;;;;;;;;;;;23.10;99.90;;;;;;5075031;28;19915;-71
2022/02/17 13:36:35;;;;;;;;;;;23.10;99.90;;;;;;5075054;28;20283;-71
2022/02/17 13:39:03;;;;;;;;;;;23.10;99.90;;;;;;5075029;28;19908;-71
2022/02/17 13:41:30;;;;;;;;;;;23.10;99.90;;;;;;5074963;28;19934;-71
2022/02/17 13:43:58;;;;;;;;;;;23.10;99.90;;;;;;5074635;28;19927;-71
2022/02/17 13:46:25;;;;;;;;;;;23.00;99.90;;;;;;5074936;28;19912;-71
2022/02/17 13:48:52;;;;;;;;;;;23.00;99.90;;;;;;5074807;28;20003;-71
2022/02/17 13:51:19;;;;;;;;;;;23.00;99.90;;;;;;5074823;28;19939;-71
2022/02/17 13:53:46;;;;;;;;;;;23.00;99.90;;;;;;5074636;28;19908;-71
2022/02/17 13:56:18;;;;;;;;;;;23.10;99.90;;;;;;5074528;28;20371;-71
2022/02/17 13:58:46;;;;;;;;;;;23.10;99.90;;;;;;5074805;28;19908;-71
2022/02/17 14:01:13;;;;;;;;;;;23.10;99.90;;;;;;5074675;28;19920;-71
2022/02/17 14:03:47;;;;;;;;;;;23.10;99.90;;;;;;5074534;28;19909;-71
2022/02/17 14:06:17;;;;;;;;;;;23.10;99.90;;;;;;5074592;28;19961;-72
2022/02/17 14:08:44;;;;;;;;;;;23.20;99.90;;;;;;5074319;28;19935;-71
2022/02/17 14:11:12;;;;;;;;;;;23.10;99.90;;;;;;5074248;28;20420;-71
2022/02/17 14:13:39;;;;;;;;;;;23.10;99.90;;;;;;5074418;28;20425;-71
2022/02/17 14:16:06;;;;;;;;;;;23.10;99.90;;;;;;5074024;28;19924;-71
2022/02/17 14:18:33;;;;;;;;;;;23.10;99.90;;;;;;5074191;28;20279;-71
2022/02/17 14:21:00;;;;;;;;;;;23.00;99.90;;;;;;5074162;28;19970;-71
2022/02/17 14:23:27;;;;;;;;;;;23.00;99.90;;;;;;5073982;28;19991;-71
2022/02/17 14:25:53;;;;;;;;;;;22.90;99.90;;;;;;5073892;28;20321;-71
2022/02/17 14:28:20;;;;;;;;;;;22.90;99.90;;;;;;5074155;28;20356;-71